CFG13K EDDF-KJFK
Flight info
| Callsign | CFG13K |
|---|---|
| Flight time | N/A |
| Altitude | 36000 |
| Route | OBOKA3D OBOKA Z28 DIBIR DCT BUDIP DCT GISEB DCT RAVLO Y70 ABTOS N110 ERKIT DCT KUGUR DCT PIKIL/M081F370 DCT 57N020W 58N030W 58N040W 56N050W DCT JANJO/N0470F380 N708B MIILS DCT ENE PARCH4 |
| Aircraft | A339/H-SADE1E2E3GHIJ3J5M1P2RWXY/LB2D1 |
Departure
| Time | 2026-04-17 06:06 |
|---|---|
| Airport | Frankfurt Main Airport (EDDF) |
Arrival
| Time | N/A |
|---|---|
| Airport | John F. Kennedy International Airport (KJFK) |
| Time | Latitude | Longitude | Altitude | Speed | Heading |
|---|---|---|---|---|---|
| 2026-04-17 05:40 | 50.04584 | 8.56610 | 365 ft | 0 kts | 114° |
| 2026-04-17 05:52 | 50.04586 | 8.56603 | 365 ft | 4 kts | 114° |
| 2026-04-17 05:52 | 50.04597 | 8.56564 | 363 ft | 3 kts | 114° |
| 2026-04-17 05:53 | 50.04604 | 8.56540 | 367 ft | 3 kts | 114° |
| 2026-04-17 05:53 | 50.04607 | 8.56528 | 366 ft | 2 kts | 120° |
| 2026-04-17 05:53 | 50.04611 | 8.56514 | 364 ft | 0 kts | 136° |
| 2026-04-17 05:53 | 50.04614 | 8.56506 | 363 ft | 1 kts | 154° |
| 2026-04-17 05:54 | 50.04641 | 8.56498 | 364 ft | 7 kts | 212° |
| 2026-04-17 05:54 | 50.04645 | 8.56500 | 363 ft | 0 kts | 219° |
| 2026-04-17 05:55 | 50.04644 | 8.56499 | 363 ft | 0 kts | 218° |
| 2026-04-17 05:55 | 50.04637 | 8.56494 | 365 ft | 2 kts | 211° |
| 2026-04-17 05:56 | 50.04621 | 8.56484 | 363 ft | 2 kts | 205° |
| 2026-04-17 05:56 | 50.04609 | 8.56475 | 363 ft | 2 kts | 205° |
| 2026-04-17 05:56 | 50.04599 | 8.56468 | 366 ft | 2 kts | 205° |
| 2026-04-17 05:56 | 50.04585 | 8.56458 | 367 ft | 2 kts | 204° |
| 2026-04-17 05:57 | 50.04522 | 8.56385 | 364 ft | 15 kts | 232° |
| 2026-04-17 05:57 | 50.04479 | 8.56231 | 367 ft | 15 kts | 249° |
| 2026-04-17 05:57 | 50.04444 | 8.56083 | 367 ft | 14 kts | 250° |
| 2026-04-17 05:58 | 50.04396 | 8.55949 | 365 ft | 14 kts | 216° |
| 2026-04-17 05:58 | 50.04307 | 8.55950 | 360 ft | 13 kts | 167° |
| 2026-04-17 05:58 | 50.04233 | 8.55902 | 364 ft | 12 kts | 234° |
| 2026-04-17 05:59 | 50.04177 | 8.55682 | 364 ft | 10 kts | 249° |
| 2026-04-17 05:59 | 50.04149 | 8.55564 | 368 ft | 14 kts | 249° |
| 2026-04-17 05:59 | 50.04110 | 8.55398 | 369 ft | 18 kts | 250° |
| 2026-04-17 05:59 | 50.04064 | 8.55201 | 367 ft | 21 kts | 250° |
| 2026-04-17 06:00 | 50.04014 | 8.55012 | 367 ft | 15 kts | 236° |
| 2026-04-17 06:00 | 50.03928 | 8.54999 | 371 ft | 13 kts | 166° |
| 2026-04-17 06:00 | 50.03844 | 8.55009 | 368 ft | 11 kts | 210° |
| 2026-04-17 06:00 | 50.03800 | 8.54907 | 368 ft | 11 kts | 246° |
| 2026-04-17 06:01 | 50.03774 | 8.54803 | 370 ft | 10 kts | 249° |
| 2026-04-17 06:01 | 50.03748 | 8.54693 | 374 ft | 12 kts | 250° |
| 2026-04-17 06:01 | 50.03713 | 8.54547 | 375 ft | 16 kts | 250° |
| 2026-04-17 06:01 | 50.03672 | 8.54372 | 377 ft | 19 kts | 250° |
| 2026-04-17 06:02 | 50.03620 | 8.54155 | 379 ft | 24 kts | 250° |
| 2026-04-17 06:02 | 50.03558 | 8.53896 | 376 ft | 28 kts | 249° |
| 2026-04-17 06:02 | 50.03491 | 8.53617 | 379 ft | 27 kts | 249° |
| 2026-04-17 06:02 | 50.03436 | 8.53390 | 377 ft | 20 kts | 245° |
| 2026-04-17 06:03 | 50.03354 | 8.53363 | 380 ft | 8 kts | 147° |
| 2026-04-17 06:03 | 50.03346 | 8.53373 | 380 ft | 0 kts | 143° |
| 2026-04-17 06:04 | 50.03338 | 8.53384 | 381 ft | 2 kts | 139° |
| 2026-04-17 06:04 | 50.03327 | 8.53404 | 382 ft | 2 kts | 133° |
| 2026-04-17 06:04 | 50.03309 | 8.53437 | 382 ft | 9 kts | 129° |
| 2026-04-17 06:05 | 50.03289 | 8.53553 | 381 ft | 13 kts | 87° |
| 2026-04-17 06:05 | 50.03317 | 8.53701 | 377 ft | 18 kts | 70° |
| 2026-04-17 06:05 | 50.03438 | 8.54195 | 379 ft | 85 kts | 69° |
| 2026-04-17 06:05 | 50.03725 | 8.55396 | 367 ft | 149 kts | 70° |
| 2026-04-17 06:06 | 50.04131 | 8.57079 | 540 ft | 177 kts | 68° |
| 2026-04-17 06:06 | 50.04579 | 8.58884 | 1224 ft | 180 kts | 69° |
| 2026-04-17 06:06 | 50.05055 | 8.60708 | 1890 ft | 184 kts | 70° |
| 2026-04-17 06:06 | 50.05526 | 8.62611 | 2362 ft | 198 kts | 70° |
| 2026-04-17 06:07 | 50.06030 | 8.64722 | 2630 ft | 218 kts | 71° |
| 2026-04-17 06:07 | 50.06566 | 8.67042 | 2971 ft | 234 kts | 72° |
| 2026-04-17 06:07 | 50.07129 | 8.69437 | 3592 ft | 236 kts | 66° |
| 2026-04-17 06:07 | 50.08122 | 8.71468 | 4191 ft | 240 kts | 39° |
| 2026-04-17 06:08 | 50.09582 | 8.72744 | 4672 ft | 247 kts | 26° |
| 2026-04-17 06:08 | 50.11196 | 8.73936 | 4897 ft | 266 kts | 25° |
| 2026-04-17 06:08 | 50.12933 | 8.75173 | 5116 ft | 282 kts | 24° |
| 2026-04-17 06:08 | 50.14738 | 8.76397 | 5799 ft | 275 kts | 23° |
| 2026-04-17 06:09 | 50.16496 | 8.77542 | 6444 ft | 278 kts | 21° |
| 2026-04-17 06:09 | 50.18341 | 8.78625 | 6794 ft | 287 kts | 16° |
| 2026-04-17 06:09 | 50.20308 | 8.78709 | 7377 ft | 281 kts | 346° |
| 2026-04-17 06:09 | 50.22152 | 8.77771 | 8039 ft | 278 kts | 335° |
| 2026-04-17 06:10 | 50.23925 | 8.76525 | 8586 ft | 281 kts | 334° |
| 2026-04-17 06:10 | 50.25702 | 8.75231 | 9153 ft | 283 kts | 333° |
| 2026-04-17 06:10 | 50.27459 | 8.73834 | 9690 ft | 285 kts | 328° |
| 2026-04-17 06:10 | 50.29058 | 8.71981 | 10226 ft | 288 kts | 316° |
| 2026-04-17 06:11 | 50.30406 | 8.69614 | 10462 ft | 300 kts | 304° |
| 2026-04-17 06:11 | 50.31484 | 8.66727 | 10584 ft | 317 kts | 295° |
| 2026-04-17 06:11 | 50.32306 | 8.63437 | 10684 ft | 332 kts | 288° |
| 2026-04-17 06:11 | 50.33013 | 8.59960 | 11170 ft | 333 kts | 287° |
| 2026-04-17 06:12 | 50.33705 | 8.56534 | 11844 ft | 331 kts | 289° |
| 2026-04-17 06:12 | 50.34481 | 8.53128 | 12348 ft | 333 kts | 290° |
| 2026-04-17 06:12 | 50.35264 | 8.49749 | 12865 ft | 335 kts | 290° |
| 2026-04-17 06:12 | 50.36054 | 8.46260 | 13395 ft | 337 kts | 290° |
| 2026-04-17 06:13 | 50.36821 | 8.42784 | 13914 ft | 338 kts | 289° |
| 2026-04-17 06:13 | 50.37517 | 8.39307 | 14348 ft | 341 kts | 283° |
| 2026-04-17 06:13 | 50.37717 | 8.35594 | 14807 ft | 345 kts | 268° |
| 2026-04-17 06:13 | 50.37291 | 8.31881 | 15245 ft | 350 kts | 254° |
| 2026-04-17 06:14 | 50.36510 | 8.28264 | 15675 ft | 352 kts | 253° |
| 2026-04-17 06:14 | 50.35751 | 8.24606 | 16118 ft | 354 kts | 254° |
| 2026-04-17 06:14 | 50.35008 | 8.20914 | 16517 ft | 357 kts | 254° |
| 2026-04-17 06:14 | 50.34267 | 8.17194 | 16951 ft | 359 kts | 255° |
| 2026-04-17 06:15 | 50.33518 | 8.13443 | 17391 ft | 361 kts | 254° |
| 2026-04-17 06:15 | 50.32765 | 8.09688 | 17823 ft | 363 kts | 254° |
| 2026-04-17 06:15 | 50.32005 | 8.05901 | 18258 ft | 366 kts | 254° |
| 2026-04-17 06:15 | 50.31237 | 8.02083 | 18666 ft | 368 kts | 254° |
| 2026-04-17 06:16 | 50.30472 | 7.98256 | 19067 ft | 369 kts | 256° |
| 2026-04-17 06:16 | 50.30032 | 7.94316 | 19446 ft | 368 kts | 268° |
| 2026-04-17 06:16 | 50.30083 | 7.90320 | 19841 ft | 368 kts | 277° |
| 2026-04-17 06:16 | 50.30564 | 7.86384 | 20241 ft | 368 kts | 286° |
| 2026-04-17 06:17 | 50.31437 | 7.82619 | 20617 ft | 370 kts | 295° |
| 2026-04-17 06:17 | 50.32554 | 7.78970 | 21006 ft | 372 kts | 295° |
| 2026-04-17 06:17 | 50.33646 | 7.75293 | 21412 ft | 373 kts | 295° |
| 2026-04-17 06:17 | 50.34727 | 7.71581 | 21824 ft | 375 kts | 295° |
| 2026-04-17 06:18 | 50.36125 | 7.68132 | 22189 ft | 378 kts | 310° |
| 2026-04-17 06:18 | 50.38083 | 7.65381 | 22603 ft | 381 kts | 324° |
| 2026-04-17 06:18 | 50.40452 | 7.63481 | 23011 ft | 385 kts | 335° |
| 2026-04-17 06:18 | 50.42933 | 7.61863 | 23430 ft | 386 kts | 334° |
| 2026-04-17 06:19 | 50.44574 | 7.60759 | 23701 ft | 388 kts | 334° |
| 2026-04-17 06:19 | 50.47056 | 7.59059 | 24040 ft | 390 kts | 334° |
| 2026-04-17 06:19 | 50.49545 | 7.57339 | 24384 ft | 392 kts | 334° |
| 2026-04-17 06:19 | 50.52044 | 7.55608 | 24740 ft | 393 kts | 334° |
| 2026-04-17 06:20 | 50.54553 | 7.53861 | 25065 ft | 395 kts | 333° |
| 2026-04-17 06:20 | 50.56974 | 7.51834 | 25384 ft | 395 kts | 326° |
| 2026-04-17 06:20 | 50.59278 | 7.49450 | 25718 ft | 396 kts | 324° |
| 2026-04-17 06:20 | 50.61585 | 7.47054 | 26047 ft | 398 kts | 325° |
| 2026-04-17 06:21 | 50.63920 | 7.44667 | 26262 ft | 403 kts | 325° |
| 2026-04-17 06:21 | 50.66273 | 7.42265 | 26683 ft | 402 kts | 325° |
| 2026-04-17 06:21 | 50.68629 | 7.39855 | 26999 ft | 404 kts | 325° |
| 2026-04-17 06:21 | 50.70990 | 7.37431 | 27300 ft | 406 kts | 324° |
| 2026-04-17 06:22 | 50.73256 | 7.34764 | 27618 ft | 407 kts | 317° |
| 2026-04-17 06:22 | 50.75282 | 7.31648 | 27922 ft | 407 kts | 310° |
| 2026-04-17 06:22 | 50.77054 | 7.28156 | 28222 ft | 408 kts | 304° |
| 2026-04-17 06:22 | 50.78662 | 7.24457 | 28508 ft | 410 kts | 304° |
| 2026-04-17 06:23 | 50.80302 | 7.20763 | 28791 ft | 411 kts | 304° |
| 2026-04-17 06:23 | 50.81961 | 7.17060 | 29092 ft | 413 kts | 304° |
| 2026-04-17 06:23 | 50.83624 | 7.13343 | 29376 ft | 415 kts | 304° |
| 2026-04-17 06:23 | 50.85291 | 7.09606 | 29659 ft | 417 kts | 304° |
| 2026-04-17 06:24 | 50.86961 | 7.05852 | 29927 ft | 418 kts | 304° |
| 2026-04-17 06:24 | 50.88619 | 7.02116 | 30142 ft | 422 kts | 304° |
| 2026-04-17 06:24 | 50.90303 | 6.98312 | 30419 ft | 423 kts | 304° |
| 2026-04-17 06:24 | 50.91994 | 6.94488 | 30690 ft | 424 kts | 304° |
| 2026-04-17 06:25 | 50.93688 | 6.90655 | 30962 ft | 425 kts | 304° |
| 2026-04-17 06:25 | 50.95382 | 6.86816 | 31251 ft | 426 kts | 304° |
| 2026-04-17 06:25 | 50.97080 | 6.82964 | 31524 ft | 427 kts | 304° |
| 2026-04-17 06:25 | 50.98783 | 6.79093 | 31773 ft | 428 kts | 304° |
| 2026-04-17 06:26 | 51.00488 | 6.75213 | 32019 ft | 429 kts | 304° |
| 2026-04-17 06:26 | 51.02199 | 6.71311 | 32280 ft | 430 kts | 304° |
| 2026-04-17 06:26 | 51.03910 | 6.67405 | 32534 ft | 431 kts | 304° |
| 2026-04-17 06:26 | 51.05622 | 6.63491 | 32758 ft | 432 kts | 304° |
| 2026-04-17 06:27 | 51.07343 | 6.59549 | 32893 ft | 435 kts | 304° |
| 2026-04-17 06:27 | 51.09069 | 6.55591 | 33098 ft | 436 kts | 304° |
| 2026-04-17 06:27 | 51.10798 | 6.51618 | 33282 ft | 436 kts | 303° |
| 2026-04-17 06:27 | 51.12524 | 6.47644 | 33444 ft | 437 kts | 303° |
| 2026-04-17 06:28 | 51.14255 | 6.43655 | 33569 ft | 438 kts | 303° |
| 2026-04-17 06:28 | 51.15982 | 6.39667 | 33743 ft | 438 kts | 303° |
| 2026-04-17 06:28 | 51.17707 | 6.35676 | 33974 ft | 436 kts | 304° |
| 2026-04-17 06:28 | 51.19421 | 6.31706 | 34183 ft | 434 kts | 303° |
| 2026-04-17 06:29 | 51.21132 | 6.27738 | 34326 ft | 434 kts | 303° |
| 2026-04-17 06:29 | 51.22840 | 6.23772 | 34448 ft | 434 kts | 303° |
| 2026-04-17 06:29 | 51.24545 | 6.19805 | 34577 ft | 434 kts | 303° |
| 2026-04-17 06:30 | 51.27937 | 6.11894 | 34755 ft | 435 kts | 303° |
| 2026-04-17 06:30 | 51.29618 | 6.07888 | 34880 ft | 434 kts | 302° |
| 2026-04-17 06:30 | 51.31264 | 6.03850 | 35004 ft | 434 kts | 302° |
| 2026-04-17 06:30 | 51.32904 | 5.99804 | 35127 ft | 434 kts | 302° |
| 2026-04-17 06:31 | 51.34548 | 5.95752 | 35253 ft | 433 kts | 302° |
| 2026-04-17 06:31 | 51.36190 | 5.91715 | 35363 ft | 433 kts | 302° |
| 2026-04-17 06:31 | 51.37898 | 5.87733 | 35469 ft | 434 kts | 306° |
| 2026-04-17 06:31 | 51.39893 | 5.84098 | 35590 ft | 435 kts | 313° |
| 2026-04-17 06:32 | 51.42022 | 5.80642 | 35685 ft | 435 kts | 312° |
| 2026-04-17 06:32 | 51.44080 | 5.77230 | 35819 ft | 435 kts | 311° |
| 2026-04-17 06:32 | 51.46215 | 5.73662 | 35944 ft | 434 kts | 311° |
| 2026-04-17 06:32 | 51.48303 | 5.70160 | 36047 ft | 434 kts | 311° |
| 2026-04-17 06:33 | 51.50390 | 5.66657 | 36152 ft | 434 kts | 311° |
| 2026-04-17 06:33 | 51.54563 | 5.59646 | 36242 ft | 434 kts | 311° |
| 2026-04-17 06:34 | 51.58723 | 5.52642 | 36253 ft | 433 kts | 311° |
| 2026-04-17 06:34 | 51.62886 | 5.45615 | 36259 ft | 433 kts | 311° |
| 2026-04-17 06:35 | 51.67042 | 5.38579 | 36252 ft | 433 kts | 311° |
| 2026-04-17 06:35 | 51.71194 | 5.31533 | 36232 ft | 433 kts | 310° |
| 2026-04-17 06:36 | 51.75330 | 5.24494 | 36210 ft | 432 kts | 310° |
| 2026-04-17 06:36 | 51.79450 | 5.17456 | 36209 ft | 431 kts | 310° |
| 2026-04-17 06:37 | 51.83565 | 5.10410 | 36228 ft | 431 kts | 310° |
| 2026-04-17 06:37 | 51.87679 | 5.03345 | 36221 ft | 431 kts | 310° |
| 2026-04-17 06:38 | 51.91781 | 4.96270 | 36209 ft | 431 kts | 310° |
| 2026-04-17 06:38 | 51.95837 | 4.89142 | 36220 ft | 431 kts | 309° |
| 2026-04-17 06:39 | 51.99900 | 4.81989 | 36209 ft | 431 kts | 309° |
| 2026-04-17 06:39 | 52.03960 | 4.74826 | 36219 ft | 431 kts | 309° |
| 2026-04-17 06:40 | 52.08024 | 4.67641 | 36209 ft | 432 kts | 309° |
| 2026-04-17 06:40 | 52.12085 | 4.60438 | 36215 ft | 432 kts | 309° |
| 2026-04-17 06:41 | 52.16116 | 4.53270 | 36220 ft | 432 kts | 309° |
| 2026-04-17 06:41 | 52.20175 | 4.46029 | 36238 ft | 433 kts | 309° |
| 2026-04-17 06:42 | 52.24228 | 4.38781 | 36226 ft | 433 kts | 309° |
| 2026-04-17 06:42 | 52.28280 | 4.31510 | 36224 ft | 433 kts | 308° |
| 2026-04-17 06:43 | 52.32329 | 4.24224 | 36221 ft | 433 kts | 308° |
| 2026-04-17 06:43 | 52.36372 | 4.16927 | 36224 ft | 433 kts | 308° |
| 2026-04-17 06:44 | 52.40412 | 4.09615 | 36220 ft | 433 kts | 308° |
| 2026-04-17 06:44 | 52.44447 | 4.02291 | 36218 ft | 433 kts | 308° |
| 2026-04-17 06:45 | 52.48481 | 3.94948 | 36215 ft | 434 kts | 308° |
| 2026-04-17 06:45 | 52.52513 | 3.87584 | 36213 ft | 434 kts | 308° |
| 2026-04-17 06:46 | 52.56542 | 3.80204 | 36215 ft | 434 kts | 308° |
| 2026-04-17 06:46 | 52.60568 | 3.72807 | 36210 ft | 434 kts | 308° |
| 2026-04-17 06:47 | 52.64594 | 3.65390 | 35919 ft | 434 kts | 308° |
| 2026-04-17 06:47 | 52.66602 | 3.61683 | 35656 ft | 433 kts | 308° |
| 2026-04-17 06:47 | 52.68609 | 3.57971 | 35392 ft | 434 kts | 308° |
| 2026-04-17 06:47 | 52.70616 | 3.54253 | 35171 ft | 435 kts | 308° |
| 2026-04-17 06:48 | 52.72634 | 3.50510 | 35211 ft | 436 kts | 307° |
| 2026-04-17 06:48 | 52.76662 | 3.43023 | 35432 ft | 436 kts | 307° |
| 2026-04-17 06:48 | 52.78673 | 3.39273 | 35553 ft | 436 kts | 307° |
| 2026-04-17 06:49 | 52.80681 | 3.35525 | 35681 ft | 436 kts | 307° |
| 2026-04-17 06:49 | 52.82689 | 3.31771 | 35782 ft | 435 kts | 307° |
| 2026-04-17 06:49 | 52.84694 | 3.28018 | 35899 ft | 435 kts | 307° |
| 2026-04-17 06:49 | 52.86699 | 3.24259 | 36005 ft | 435 kts | 307° |
| 2026-04-17 06:50 | 52.88638 | 3.20524 | 36110 ft | 433 kts | 303° |
| 2026-04-17 06:50 | 52.91657 | 3.12009 | 36188 ft | 426 kts | 290° |
| 2026-04-17 06:51 | 52.93309 | 3.02664 | 36200 ft | 422 kts | 279° |
| 2026-04-17 06:51 | 52.94542 | 2.93151 | 36199 ft | 422 kts | 280° |
| 2026-04-17 06:52 | 52.95805 | 2.83635 | 36192 ft | 422 kts | 280° |
| 2026-04-17 06:52 | 52.97045 | 2.74127 | 36167 ft | 422 kts | 280° |
| 2026-04-17 06:53 | 52.98273 | 2.64618 | 36171 ft | 422 kts | 280° |
| 2026-04-17 06:53 | 52.99494 | 2.55092 | 36181 ft | 421 kts | 279° |
| 2026-04-17 06:54 | 53.00706 | 2.45572 | 36201 ft | 421 kts | 279° |
| 2026-04-17 06:54 | 53.01908 | 2.36066 | 36183 ft | 421 kts | 279° |
| 2026-04-17 06:55 | 53.03102 | 2.26564 | 36183 ft | 420 kts | 279° |
| 2026-04-17 06:55 | 53.04289 | 2.17054 | 36174 ft | 420 kts | 279° |
| 2026-04-17 06:56 | 53.05466 | 2.07555 | 36173 ft | 420 kts | 279° |
| 2026-04-17 06:56 | 53.06636 | 1.98045 | 36176 ft | 420 kts | 279° |
| 2026-04-17 06:57 | 53.07797 | 1.88543 | 36170 ft | 419 kts | 279° |
| 2026-04-17 06:57 | 53.08949 | 1.79043 | 36167 ft | 419 kts | 279° |
| 2026-04-17 06:58 | 53.10093 | 1.69543 | 36167 ft | 419 kts | 278° |
| 2026-04-17 06:58 | 53.11228 | 1.60035 | 36160 ft | 423 kts | 278° |
| 2026-04-17 06:59 | 53.12372 | 1.50400 | 36167 ft | 426 kts | 278° |
| 2026-04-17 06:59 | 53.13515 | 1.40710 | 36157 ft | 427 kts | 278° |
| 2026-04-17 07:00 | 53.14651 | 1.30995 | 36157 ft | 427 kts | 278° |
| 2026-04-17 07:00 | 53.15780 | 1.21262 | 36148 ft | 428 kts | 278° |
| 2026-04-17 07:01 | 53.16900 | 1.11536 | 36137 ft | 428 kts | 278° |
| 2026-04-17 07:01 | 53.18014 | 1.01787 | 36154 ft | 428 kts | 278° |
| 2026-04-17 07:02 | 53.19121 | 0.92039 | 36149 ft | 428 kts | 278° |
| 2026-04-17 07:02 | 53.20218 | 0.82285 | 36141 ft | 428 kts | 278° |
| 2026-04-17 07:03 | 53.21305 | 0.72549 | 36132 ft | 427 kts | 277° |
| 2026-04-17 07:03 | 53.22386 | 0.62792 | 36135 ft | 427 kts | 277° |
| 2026-04-17 07:04 | 53.23459 | 0.53047 | 36126 ft | 427 kts | 277° |
| 2026-04-17 07:04 | 53.24760 | 0.45071 | 36133 ft | 432 kts | 287° |
| 2026-04-17 07:05 | 53.27592 | 0.36140 | 36106 ft | 441 kts | 300° |
| 2026-04-17 07:05 | 53.31356 | 0.27969 | 36110 ft | 443 kts | 302° |
| 2026-04-17 07:06 | 53.35094 | 0.19790 | 36102 ft | 443 kts | 301° |
| 2026-04-17 07:06 | 53.38825 | 0.11577 | 36099 ft | 443 kts | 301° |
| 2026-04-17 07:07 | 53.42553 | 0.03357 | 36102 ft | 443 kts | 301° |
| 2026-04-17 07:07 | 53.46276 | -0.04880 | 36096 ft | 443 kts | 301° |
| 2026-04-17 07:08 | 53.49999 | -0.13140 | 36096 ft | 444 kts | 301° |
| 2026-04-17 07:08 | 53.53720 | -0.21419 | 36097 ft | 444 kts | 301° |
| 2026-04-17 07:09 | 53.57741 | -0.29350 | 36095 ft | 451 kts | 309° |
| 2026-04-17 07:09 | 53.62670 | -0.36050 | 36096 ft | 461 kts | 320° |
| 2026-04-17 07:10 | 53.67975 | -0.42099 | 36097 ft | 460 kts | 319° |
| 2026-04-17 07:10 | 53.73218 | -0.48186 | 36092 ft | 460 kts | 319° |
| 2026-04-17 07:11 | 53.78540 | -0.54364 | 36076 ft | 462 kts | 319° |
| 2026-04-17 07:11 | 53.83836 | -0.60521 | 36087 ft | 462 kts | 318° |
| 2026-04-17 07:12 | 53.89132 | -0.66697 | 36074 ft | 462 kts | 318° |
| 2026-04-17 07:12 | 53.94426 | -0.72892 | 36063 ft | 462 kts | 318° |
| 2026-04-17 07:13 | 53.99621 | -0.79181 | 36072 ft | 457 kts | 311° |
| 2026-04-17 07:13 | 54.03564 | -0.87324 | 36054 ft | 440 kts | 294° |
| 2026-04-17 07:14 | 54.05831 | -0.96830 | 36047 ft | 432 kts | 283° |
| 2026-04-17 07:14 | 54.07774 | -1.06516 | 36055 ft | 433 kts | 284° |
| 2026-04-17 07:15 | 54.09750 | -1.16215 | 36053 ft | 433 kts | 284° |
| 2026-04-17 07:15 | 54.11715 | -1.25923 | 36047 ft | 433 kts | 284° |
| 2026-04-17 07:16 | 54.13670 | -1.35655 | 36034 ft | 433 kts | 284° |
| 2026-04-17 07:16 | 54.15610 | -1.45386 | 36046 ft | 433 kts | 284° |
| 2026-04-17 07:17 | 54.17540 | -1.55123 | 36046 ft | 433 kts | 283° |
| 2026-04-17 07:17 | 54.20422 | -1.69759 | 36021 ft | 434 kts | 283° |
| 2026-04-17 07:18 | 54.22336 | -1.79543 | 36029 ft | 435 kts | 283° |
| 2026-04-17 07:18 | 54.24249 | -1.89365 | 36031 ft | 435 kts | 283° |
| 2026-04-17 07:19 | 54.26155 | -1.99197 | 36037 ft | 435 kts | 283° |
| 2026-04-17 07:19 | 54.28048 | -2.09023 | 36015 ft | 435 kts | 283° |
| 2026-04-17 07:20 | 54.29932 | -2.18852 | 35996 ft | 435 kts | 282° |
| 2026-04-17 07:20 | 54.31811 | -2.28701 | 36008 ft | 435 kts | 282° |
| 2026-04-17 07:21 | 54.33679 | -2.38547 | 36005 ft | 435 kts | 282° |
| 2026-04-17 07:21 | 54.35543 | -2.48423 | 35995 ft | 435 kts | 282° |
| 2026-04-17 07:22 | 54.37399 | -2.58307 | 35992 ft | 436 kts | 282° |
| 2026-04-17 07:22 | 54.39249 | -2.68211 | 36023 ft | 436 kts | 282° |
| 2026-04-17 07:23 | 54.41086 | -2.78094 | 35978 ft | 438 kts | 282° |
| 2026-04-17 07:23 | 54.42928 | -2.88058 | 35972 ft | 438 kts | 282° |
| 2026-04-17 07:24 | 54.44762 | -2.98034 | 35988 ft | 438 kts | 282° |
| 2026-04-17 07:24 | 54.46588 | -3.08030 | 35959 ft | 439 kts | 282° |
| 2026-04-17 07:25 | 54.48414 | -3.18066 | 35955 ft | 440 kts | 282° |
| 2026-04-17 07:25 | 54.50231 | -3.28122 | 35961 ft | 441 kts | 281° |
| 2026-04-17 07:26 | 54.52048 | -3.38212 | 35935 ft | 441 kts | 281° |
| 2026-04-17 07:26 | 54.53852 | -3.48300 | 35932 ft | 441 kts | 281° |
| 2026-04-17 07:27 | 54.55649 | -3.58396 | 35940 ft | 441 kts | 281° |
| 2026-04-17 07:27 | 54.57439 | -3.68513 | 35930 ft | 441 kts | 281° |
| 2026-04-17 07:28 | 54.59220 | -3.78637 | 35948 ft | 442 kts | 280° |
| 2026-04-17 07:28 | 54.60996 | -3.88791 | 35908 ft | 442 kts | 280° |
| 2026-04-17 07:29 | 54.62762 | -3.98947 | 35900 ft | 442 kts | 280° |
| 2026-04-17 07:29 | 54.64518 | -4.09101 | 35914 ft | 441 kts | 280° |
| 2026-04-17 07:30 | 54.66267 | -4.19271 | 35929 ft | 441 kts | 280° |
| 2026-04-17 07:30 | 54.68006 | -4.29445 | 35931 ft | 442 kts | 280° |
| 2026-04-17 07:31 | 54.69747 | -4.39691 | 35882 ft | 445 kts | 279° |
| 2026-04-17 07:31 | 54.71471 | -4.49897 | 35879 ft | 446 kts | 279° |
| 2026-04-17 07:32 | 54.73204 | -4.60209 | 35879 ft | 446 kts | 279° |
| 2026-04-17 07:32 | 54.74927 | -4.70528 | 35885 ft | 446 kts | 279° |
| 2026-04-17 07:33 | 54.76644 | -4.80874 | 35865 ft | 447 kts | 279° |
| 2026-04-17 07:33 | 54.78352 | -4.91220 | 35843 ft | 448 kts | 279° |
| 2026-04-17 07:34 | 54.80056 | -5.01612 | 35839 ft | 448 kts | 279° |
| 2026-04-17 07:34 | 54.81753 | -5.12022 | 35872 ft | 448 kts | 279° |
| 2026-04-17 07:35 | 54.83441 | -5.22437 | 35848 ft | 448 kts | 279° |
| 2026-04-17 07:35 | 54.85119 | -5.32860 | 35817 ft | 449 kts | 279° |
| 2026-04-17 07:36 | 54.86789 | -5.43294 | 35809 ft | 449 kts | 278° |
| 2026-04-17 07:36 | 54.88454 | -5.53766 | 35811 ft | 451 kts | 278° |
| 2026-04-17 07:37 | 54.90120 | -5.64306 | 35809 ft | 453 kts | 278° |
| 2026-04-17 07:37 | 54.91780 | -5.74875 | 35813 ft | 454 kts | 278° |
| 2026-04-17 07:38 | 54.93423 | -5.85401 | 35812 ft | 454 kts | 278° |
| 2026-04-17 07:38 | 54.95069 | -5.96014 | 35806 ft | 454 kts | 278° |
| 2026-04-17 07:39 | 54.96707 | -6.06641 | 35806 ft | 455 kts | 278° |
| 2026-04-17 07:39 | 54.98334 | -6.17272 | 35801 ft | 454 kts | 278° |
| 2026-04-17 07:40 | 54.99952 | -6.27911 | 35800 ft | 455 kts | 278° |
| 2026-04-17 07:40 | 55.01561 | -6.38561 | 35782 ft | 455 kts | 278° |
| 2026-04-17 07:41 | 55.03162 | -6.49222 | 35784 ft | 454 kts | 278° |
| 2026-04-17 07:41 | 55.04751 | -6.59884 | 35767 ft | 456 kts | 278° |
| 2026-04-17 07:42 | 55.06336 | -6.70595 | 35738 ft | 457 kts | 278° |
| 2026-04-17 07:42 | 55.07916 | -6.81328 | 35752 ft | 458 kts | 278° |
| 2026-04-17 07:43 | 55.09482 | -6.92057 | 35732 ft | 460 kts | 278° |
| 2026-04-17 07:43 | 55.11053 | -7.02888 | 35718 ft | 461 kts | 278° |
| 2026-04-17 07:44 | 55.12619 | -7.13747 | 35725 ft | 461 kts | 277° |
| 2026-04-17 07:44 | 55.14176 | -7.24645 | 35718 ft | 463 kts | 278° |
| 2026-04-17 07:45 | 55.15734 | -7.35596 | 35727 ft | 464 kts | 278° |
| 2026-04-17 07:45 | 55.17283 | -7.46573 | 35714 ft | 465 kts | 278° |
| 2026-04-17 07:46 | 55.18824 | -7.57577 | 35692 ft | 465 kts | 278° |
| 2026-04-17 07:46 | 55.20355 | -7.68582 | 35699 ft | 466 kts | 277° |
| 2026-04-17 07:47 | 55.21879 | -7.79625 | 35683 ft | 467 kts | 277° |
| 2026-04-17 07:47 | 55.23398 | -7.90703 | 35676 ft | 468 kts | 277° |
| 2026-04-17 07:48 | 55.24906 | -8.01781 | 35678 ft | 467 kts | 277° |
| 2026-04-17 07:48 | 55.26405 | -8.12886 | 35668 ft | 469 kts | 277° |
| 2026-04-17 07:49 | 55.27896 | -8.24013 | 35666 ft | 469 kts | 277° |
| 2026-04-17 07:49 | 55.29131 | -8.33291 | 35658 ft | 471 kts | 277° |
| 2026-04-17 07:50 | 55.30610 | -8.44487 | 35642 ft | 471 kts | 277° |
| 2026-04-17 07:50 | 55.32081 | -8.55697 | 35649 ft | 471 kts | 277° |
| 2026-04-17 07:51 | 55.33543 | -8.66919 | 35642 ft | 472 kts | 277° |
| 2026-04-17 07:51 | 55.34994 | -8.78157 | 35642 ft | 472 kts | 277° |
| 2026-04-17 07:52 | 55.36435 | -8.89404 | 35657 ft | 472 kts | 277° |
| 2026-04-17 07:52 | 55.37868 | -9.00687 | 35622 ft | 473 kts | 277° |
| 2026-04-17 07:53 | 55.39295 | -9.11993 | 35602 ft | 473 kts | 277° |
| 2026-04-17 07:53 | 55.40700 | -9.23219 | 35606 ft | 473 kts | 277° |
| 2026-04-17 07:54 | 55.42104 | -9.34530 | 35609 ft | 473 kts | 277° |
| 2026-04-17 07:54 | 55.43499 | -9.45870 | 35571 ft | 474 kts | 277° |
| 2026-04-17 07:55 | 55.44885 | -9.57240 | 35571 ft | 475 kts | 277° |
| 2026-04-17 07:55 | 55.46271 | -9.68634 | 35567 ft | 475 kts | 277° |
| 2026-04-17 07:56 | 55.47652 | -9.80045 | 35562 ft | 476 kts | 277° |
| 2026-04-17 07:56 | 55.49020 | -9.91453 | 35539 ft | 476 kts | 277° |
| 2026-04-17 07:57 | 55.50350 | -10.02887 | 35541 ft | 475 kts | 276° |
| 2026-04-17 07:57 | 55.51657 | -10.14336 | 35512 ft | 477 kts | 278° |
| 2026-04-17 07:58 | 55.53085 | -10.25772 | 35525 ft | 477 kts | 278° |
| 2026-04-17 07:58 | 55.54475 | -10.37233 | 35512 ft | 477 kts | 277° |
| 2026-04-17 07:59 | 55.55823 | -10.48635 | 35503 ft | 477 kts | 277° |
| 2026-04-17 07:59 | 55.57165 | -10.60113 | 35491 ft | 477 kts | 277° |
| 2026-04-17 08:00 | 55.58496 | -10.71609 | 35498 ft | 478 kts | 277° |
| 2026-04-17 08:00 | 55.59821 | -10.83134 | 35487 ft | 478 kts | 277° |
| 2026-04-17 08:01 | 55.61137 | -10.94671 | 35459 ft | 479 kts | 277° |
| 2026-04-17 08:01 | 55.62442 | -11.06225 | 35446 ft | 479 kts | 277° |
| 2026-04-17 08:02 | 55.63734 | -11.17773 | 35465 ft | 478 kts | 277° |
| 2026-04-17 08:02 | 55.65014 | -11.29330 | 35466 ft | 479 kts | 277° |
| 2026-04-17 08:03 | 55.66286 | -11.40902 | 35454 ft | 479 kts | 277° |
| 2026-04-17 08:03 | 55.67548 | -11.52491 | 35455 ft | 479 kts | 277° |
| 2026-04-17 08:04 | 55.68798 | -11.64076 | 35455 ft | 478 kts | 277° |
| 2026-04-17 08:04 | 55.70036 | -11.75662 | 35447 ft | 478 kts | 277° |
| 2026-04-17 08:05 | 55.71256 | -11.87187 | 35451 ft | 478 kts | 277° |
| 2026-04-17 08:05 | 55.72471 | -11.98781 | 35435 ft | 479 kts | 277° |
| 2026-04-17 08:06 | 55.73677 | -12.10407 | 35433 ft | 479 kts | 277° |
| 2026-04-17 08:06 | 55.74876 | -12.22058 | 35426 ft | 479 kts | 276° |
| 2026-04-17 08:07 | 55.76061 | -12.33699 | 35427 ft | 479 kts | 276° |
| 2026-04-17 08:07 | 55.77236 | -12.45350 | 35449 ft | 479 kts | 276° |
| 2026-04-17 08:08 | 55.78400 | -12.57030 | 35428 ft | 480 kts | 276° |
| 2026-04-17 08:08 | 55.79555 | -12.68712 | 35420 ft | 480 kts | 276° |
| 2026-04-17 08:09 | 55.80697 | -12.80388 | 35415 ft | 480 kts | 276° |
| 2026-04-17 08:09 | 55.81820 | -12.91996 | 35416 ft | 480 kts | 276° |
| 2026-04-17 08:10 | 55.82948 | -13.03771 | 35418 ft | 480 kts | 276° |
| 2026-04-17 08:10 | 55.84049 | -13.15404 | 35413 ft | 480 kts | 276° |
| 2026-04-17 08:11 | 55.85148 | -13.27112 | 35413 ft | 480 kts | 276° |
| 2026-04-17 08:11 | 55.86236 | -13.38845 | 35396 ft | 481 kts | 276° |
| 2026-04-17 08:12 | 55.87316 | -13.50613 | 35394 ft | 481 kts | 276° |
| 2026-04-17 08:12 | 55.88383 | -13.62367 | 35399 ft | 481 kts | 276° |
| 2026-04-17 08:13 | 55.89440 | -13.74145 | 35426 ft | 481 kts | 276° |
| 2026-04-17 08:14 | 55.90998 | -13.91737 | 35402 ft | 481 kts | 276° |
| 2026-04-17 08:14 | 55.92027 | -14.03530 | 35400 ft | 481 kts | 276° |
| 2026-04-17 08:15 | 55.93042 | -14.15304 | 35400 ft | 481 kts | 276° |
| 2026-04-17 08:15 | 55.94047 | -14.27091 | 35424 ft | 480 kts | 276° |
| 2026-04-17 08:16 | 55.95039 | -14.38883 | 35420 ft | 481 kts | 276° |
| 2026-04-17 08:16 | 55.96023 | -14.50681 | 35412 ft | 481 kts | 276° |
| 2026-04-17 08:17 | 55.96983 | -14.62352 | 35417 ft | 480 kts | 276° |
| 2026-04-17 08:17 | 55.97943 | -14.74164 | 35419 ft | 481 kts | 276° |
| 2026-04-17 08:18 | 55.98889 | -14.85919 | 35419 ft | 481 kts | 276° |
| 2026-04-17 08:18 | 55.99880 | -14.97742 | 35428 ft | 482 kts | 279° |
| 2026-04-17 08:19 | 56.01981 | -15.08896 | 35423 ft | 485 kts | 290° |
| 2026-04-17 08:19 | 56.04486 | -15.19942 | 35440 ft | 485 kts | 289° |
| 2026-04-17 08:20 | 56.06994 | -15.31152 | 35436 ft | 485 kts | 289° |
| 2026-04-17 08:20 | 56.09488 | -15.42370 | 35458 ft | 485 kts | 289° |
| 2026-04-17 08:21 | 56.11969 | -15.53612 | 35454 ft | 485 kts | 289° |
| 2026-04-17 08:21 | 56.14443 | -15.64856 | 35477 ft | 485 kts | 288° |
| 2026-04-17 08:22 | 56.16896 | -15.76117 | 35493 ft | 485 kts | 288° |
| 2026-04-17 08:22 | 56.19344 | -15.87393 | 35479 ft | 484 kts | 288° |
| 2026-04-17 08:23 | 56.21779 | -15.98684 | 35478 ft | 485 kts | 288° |
| 2026-04-17 08:23 | 56.24192 | -16.09922 | 35499 ft | 484 kts | 288° |
| 2026-04-17 08:24 | 56.26606 | -16.21231 | 35497 ft | 484 kts | 288° |
| 2026-04-17 08:24 | 56.29015 | -16.32549 | 35509 ft | 484 kts | 287° |
| 2026-04-17 08:25 | 56.31402 | -16.43877 | 35490 ft | 484 kts | 287° |
| 2026-04-17 08:25 | 56.33740 | -16.54992 | 35528 ft | 484 kts | 288° |
| 2026-04-17 08:26 | 56.36109 | -16.66359 | 35512 ft | 485 kts | 288° |
| 2026-04-17 08:26 | 56.38481 | -16.77753 | 35523 ft | 485 kts | 287° |
| 2026-04-17 08:27 | 56.40836 | -16.89168 | 35541 ft | 485 kts | 287° |
| 2026-04-17 08:27 | 56.43180 | -17.00594 | 35538 ft | 485 kts | 288° |
| 2026-04-17 08:28 | 56.45520 | -17.12046 | 35551 ft | 485 kts | 288° |
| 2026-04-17 08:28 | 56.47836 | -17.23442 | 35546 ft | 486 kts | 287° |
| 2026-04-17 08:29 | 56.50156 | -17.34940 | 35560 ft | 486 kts | 288° |
| 2026-04-17 08:29 | 56.52471 | -17.46451 | 35564 ft | 486 kts | 287° |
| 2026-04-17 08:30 | 56.54770 | -17.57974 | 35567 ft | 486 kts | 287° |
| 2026-04-17 08:30 | 56.57060 | -17.69525 | 35580 ft | 486 kts | 287° |
| 2026-04-17 08:31 | 56.59336 | -17.81070 | 35580 ft | 486 kts | 287° |
| 2026-04-17 08:31 | 56.61604 | -17.92641 | 35570 ft | 486 kts | 287° |
| 2026-04-17 08:32 | 56.63863 | -18.04224 | 35576 ft | 487 kts | 287° |
| 2026-04-17 08:32 | 56.66111 | -18.15832 | 35573 ft | 487 kts | 287° |
| 2026-04-17 08:33 | 56.68350 | -18.27446 | 35586 ft | 486 kts | 286° |
| 2026-04-17 08:33 | 56.70557 | -18.39003 | 35590 ft | 487 kts | 286° |
| 2026-04-17 08:34 | 56.72771 | -18.50646 | 35594 ft | 487 kts | 287° |
| 2026-04-17 08:34 | 56.74979 | -18.62306 | 35596 ft | 487 kts | 286° |
| 2026-04-17 08:35 | 56.77175 | -18.73984 | 35599 ft | 487 kts | 286° |
| 2026-04-17 08:35 | 56.79357 | -18.85659 | 35611 ft | 487 kts | 286° |
| 2026-04-17 08:36 | 56.81530 | -18.97379 | 35610 ft | 487 kts | 286° |
| 2026-04-17 08:36 | 56.83691 | -19.09099 | 35611 ft | 487 kts | 286° |
| 2026-04-17 08:37 | 56.85844 | -19.20827 | 35629 ft | 487 kts | 285° |
| 2026-04-17 08:37 | 56.87982 | -19.32567 | 35640 ft | 486 kts | 285° |
| 2026-04-17 08:38 | 56.90110 | -19.44320 | 35648 ft | 486 kts | 285° |
| 2026-04-17 08:38 | 56.92226 | -19.56092 | 35625 ft | 486 kts | 285° |
| 2026-04-17 08:39 | 56.94331 | -19.67862 | 35624 ft | 487 kts | 285° |